Time;durP1;ratioP1;P1;durP2;ratioP2;P2;SDS_P1;SDS_P2;PMS_P1;PMS_P2;Temp;Humidity;BMP_temperature;BMP_pressure;BME280_temperature;BME280_humidity;BME280_pressure;Samples;Min_cycle;Max_cycle;Signal;HPM_P1;HPM_P2
2023/02/05 00:00:50;;;;;;;6.00;3.10;;;;;;;7.18;46.92;100585.04;108120;1254;61048;-63
2023/02/05 00:03:18;;;;;;;5.90;3.60;;;;;;;7.22;46.90;100587.08;108050;1254;74175;-63
2023/02/05 00:05:46;;;;;;;4.60;3.40;;;;;;;7.17;47.05;100585.40;108142;1254;71221;-64
2023/02/05 00:08:14;;;;;;;5.60;3.60;;;;;;;7.42;46.51;100587.63;108108;1254;73932;-65
2023/02/05 00:10:42;;;;;;;4.80;3.50;;;;;;;7.55;46.35;100590.89;108051;1254;63113;-62
2023/02/05 00:13:11;;;;;;;4.00;3.20;;;;;;;7.16;47.10;100594.68;108061;1254;60724;-63
2023/02/05 00:15:39;;;;;;;5.30;3.70;;;;;;;7.03;47.53;100595.05;108125;1254;75044;-62
2023/02/05 00:18:08;;;;;;;6.90;3.60;;;;;;;7.28;47.27;100592.56;108062;1256;71713;-64
2023/02/05 00:20:36;;;;;;;4.70;3.00;;;;;;;7.43;46.88;100595.31;108033;1257;73681;-62
2023/02/05 00:23:05;;;;;;;4.90;3.50;;;;;;;7.30;47.15;100597.96;108123;1257;62258;-62
2023/02/05 00:25:33;;;;;;;4.10;3.00;;;;;;;7.66;46.48;100590.70;107986;1255;61371;-62
2023/02/05 00:28:02;;;;;;;4.10;3.10;;;;;;;7.94;45.97;100586.53;108055;1254;75178;-60
2023/02/05 00:30:31;;;;;;;6.60;3.60;;;;;;;8.05;46.04;100587.89;108052;1254;71236;-63
2023/02/05 00:32:59;;;;;;;6.10;3.70;;;;;;;7.69;46.48;100590.64;108091;1254;73339;-63
2023/02/05 00:35:28;;;;;;;6.00;3.60;;;;;;;7.65;46.54;100589.85;108136;1254;62988;-63
2023/02/05 00:37:57;;;;;;;6.10;3.20;;;;;;;7.69;46.28;100586.11;108099;1254;61040;-62
2023/02/05 00:40:25;;;;;;;7.90;3.40;;;;;;;7.59;46.44;100586.64;108100;1254;74162;-62
2023/02/05 00:42:53;;;;;;;7.00;4.10;;;;;;;7.56;46.84;100592.64;108055;1254;71574;-62
2023/02/05 00:45:21;;;;;;;5.30;3.30;;;;;;;7.65;46.45;100592.13;108060;1254;74052;-63
2023/02/05 00:47:49;;;;;;;6.20;3.60;;;;;;;7.51;46.38;100598.81;108100;1253;63260;-63
2023/02/05 00:50:17;;;;;;;6.50;3.60;;;;;;;7.37;46.80;100599.42;108035;1254;60470;-62
2023/02/05 00:52:45;;;;;;;5.10;3.40;;;;;;;7.46;46.63;100598.90;108022;1257;75089;-63
2023/02/05 00:55:14;;;;;;;6.80;3.70;;;;;;;7.25;47.04;100594.52;108131;1254;70893;-63
2023/02/05 00:57:42;;;;;;;7.20;3.90;;;;;;;7.13;47.29;100592.27;108077;1254;71888;-63
2023/02/05 01:00:11;;;;;;;4.90;3.70;;;;;;;7.41;46.79;100593.24;108123;1254;61939;-62
2023/02/05 01:02:40;;;;;;;6.80;3.40;;;;;;;7.55;46.81;100593.34;108098;1254;61363;-63
2023/02/05 01:05:08;;;;;;;6.00;3.50;;;;;;;7.71;46.44;100590.61;108154;1254;74817;-63
2023/02/05 01:07:37;;;;;;;5.70;3.40;;;;;;;8.04;45.89;100593.34;108156;1254;71278;-61
2023/02/05 01:10:06;;;;;;;5.40;3.70;;;;;;;8.00;45.98;100589.56;108187;1254;73498;-62
2023/02/05 01:12:34;;;;;;;4.70;3.10;;;;;;;8.04;45.93;100593.17;108039;1254;60959;-62
2023/02/05 01:15:05;;;;;;;6.20;3.80;;;;;;;8.26;45.54;100591.85;108051;1253;61576;-64
2023/02/05 01:17:33;;;;;;;5.60;3.30;;;;;;;8.31;45.32;100589.48;108071;1254;73535;-64
2023/02/05 01:20:01;;;;;;;5.10;3.40;;;;;;;8.49;44.86;100587.56;108182;1254;71301;-63
2023/02/05 01:22:31;;;;;;;5.80;3.60;;;;;;;7.89;45.76;100589.95;108104;1254;71844;-63
2023/02/05 01:24:59;;;;;;;5.50;3.70;;;;;;;7.62;46.31;100587.45;108086;1254;63319;-62
2023/02/05 01:27:27;;;;;;;7.90;3.50;;;;;;;7.60;46.78;100586.79;108089;1254;61795;-61
2023/02/05 01:29:55;;;;;;;4.30;3.40;;;;;;;7.49;47.31;100589.09;108122;1257;74745;-63
2023/02/05 01:32:24;;;;;;;5.60;3.60;;;;;;;7.63;46.68;100586.55;108113;1254;71546;-63
2023/02/05 01:34:52;;;;;;;5.40;3.40;;;;;;;7.58;46.84;100589.97;108157;1254;71721;-64
2023/02/05 01:37:20;;;;;;;6.40;3.90;;;;;;;7.71;46.54;100589.06;108103;1257;63193;-64
2023/02/05 01:39:50;;;;;;;5.10;3.50;;;;;;;7.55;46.76;100587.92;108048;1254;60405;-62
2023/02/05 01:42:21;;;;;;;4.20;3.40;;;;;;;7.29;47.37;100591.86;108067;1254;73275;-64
2023/02/05 01:45:22;;;;;;;5.70;3.60;;;;;;;7.45;47.25;100592.45;108031;1254;71642;-64
2023/02/05 01:47:51;;;;;;;5.60;3.70;;;;;;;7.47;47.53;100591.75;108047;1254;73646;-63
2023/02/05 01:50:25;;;;;;;7.00;3.60;;;;;;;7.70;47.28;100589.75;108132;1254;62522;-63
2023/02/05 01:52:54;;;;;;;7.10;3.50;;;;;;;7.89;46.77;100591.34;107968;1254;61336;-63
2023/02/05 01:55:23;;;;;;;5.10;3.20;;;;;;;8.04;46.32;100593.69;108054;1254;74561;-63
2023/02/05 01:57:51;;;;;;;5.90;3.20;;;;;;;8.03;46.17;100592.30;108137;1254;71559;-64
2023/02/05 02:00:20;;;;;;;4.60;3.30;;;;;;;7.91;46.44;100598.81;108032;1254;72489;-63
2023/02/05 02:02:48;;;;;;;6.90;3.70;;;;;;;7.63;47.21;100602.12;108158;1254;61106;-64
2023/02/05 02:05:16;;;;;;;8.70;3.60;;;;;;;7.59;47.38;100596.77;108152;1254;60374;-65
2023/02/05 02:07:45;;;;;;;8.00;3.60;;;;;;;7.60;47.29;100603.92;108134;1254;74728;-63
2023/02/05 02:10:14;;;;;;;5.80;3.30;;;;;;;7.51;47.57;100597.77;108182;1254;70592;-63
2023/02/05 02:12:43;;;;;;;5.30;3.60;;;;;;;7.27;47.92;100599.92;108106;1254;72896;-63
2023/02/05 02:15:14;;;;;;;4.70;3.60;;;;;;;7.25;48.17;100604.33;107908;1254;62880;-64
2023/02/05 02:17:44;;;;;;;6.30;4.00;;;;;;;7.17;48.41;100602.19;108075;1254;60430;-65
2023/02/05 02:20:17;;;;;;;6.00;4.00;;;;;;;7.17;48.30;100602.69;108051;1254;74942;-64
2023/02/05 02:22:54;;;;;;;5.00;3.60;;;;;;;7.44;47.92;100595.10;108060;1254;71557;-64
2023/02/05 02:25:31;;;;;;;6.80;3.50;;;;;;;7.61;47.34;100593.43;108026;1254;73784;-63
2023/02/05 02:28:01;;;;;;;5.80;3.60;;;;;;;7.65;47.05;100592.28;108113;1254;60388;-63
2023/02/05 02:30:34;;;;;;;6.10;4.10;;;;;;;7.81;47.11;100589.40;108092;1254;60444;-63
2023/02/05 02:33:14;;;;;;;6.70;3.90;;;;;;;7.68;47.40;100587.52;108051;1254;75027;-63
2023/02/05 02:36:00;;;;;;;5.60;3.80;;;;;;;7.70;47.11;100590.64;108059;1254;71411;-63
2023/02/05 02:38:34;;;;;;;5.10;3.80;;;;;;;7.91;46.88;100587.65;108163;1254;73238;-63
2023/02/05 02:41:09;;;;;;;6.50;4.20;;;;;;;8.04;46.53;100589.84;108168;1254;63155;-62
2023/02/05 02:44:04;;;;;;;6.20;3.60;;;;;;;7.97;46.74;100598.01;108152;1254;61509;-63
2023/02/05 02:46:37;;;;;;;6.90;4.60;;;;;;;7.82;47.25;100598.11;108104;1254;74170;-64
2023/02/05 02:49:07;;;;;;;9.10;3.90;;;;;;;7.92;47.01;100600.90;108193;1254;71487;-63
2023/02/05 02:51:35;;;;;;;5.20;3.90;;;;;;;7.83;47.03;100600.02;108115;1257;73790;-64
2023/02/05 02:54:06;;;;;;;8.20;3.90;;;;;;;7.85;47.54;100598.41;107875;1254;61773;-64
2023/02/05 02:56:36;;;;;;;6.30;3.60;;;;;;;7.96;47.36;100602.58;108157;1254;60352;-62
2023/02/05 02:59:09;;;;;;;7.40;4.50;;;;;;;8.16;46.66;100602.02;107929;1260;72093;-63
2023/02/05 03:01:39;;;;;;;6.60;4.30;;;;;;;8.45;46.45;100603.38;108056;1254;71343;-63
2023/02/05 03:04:13;;;;;;;4.50;3.20;;;;;;;8.23;46.52;100607.14;108081;1254;72408;-63
2023/02/05 03:06:44;;;;;;;7.60;3.80;;;;;;;8.07;47.17;100615.30;108018;1254;62204;-61
2023/02/05 03:09:21;;;;;;;5.90;4.20;;;;;;;7.97;47.53;100617.07;108118;1254;60303;-63
2023/02/05 03:11:49;;;;;;;8.90;4.00;;;;;;;8.24;46.72;100618.31;108058;1254;74819;-62
2023/02/05 03:14:18;;;;;;;6.60;4.20;;;;;;;8.43;46.39;100613.92;108094;1254;69890;-62
2023/02/05 03:16:46;;;;;;;5.60;3.70;;;;;;;8.51;45.85;100612.18;108042;1255;72914;-62
2023/02/05 03:19:15;;;;;;;8.10;3.90;;;;;;;8.56;45.71;100615.60;107903;1254;63276;-62
2023/02/05 03:21:50;;;;;;;8.80;4.60;;;;;;;8.60;45.75;100621.98;108144;1254;61275;-63
2023/02/05 03:24:18;;;;;;;6.70;4.10;;;;;;;8.78;45.14;100624.39;108146;1254;74677;-66
2023/02/05 03:26:48;;;;;;;8.10;4.40;;;;;;;8.97;44.92;100622.39;107949;1254;71488;-63
2023/02/05 03:29:26;;;;;;;;;;;;;;;9.10;44.57;100619.84;108156;1254;72899;-61
2023/02/05 03:32:32;;;;;;;5.10;3.60;;;;;;;9.54;43.77;100611.95;108018;1254;62359;-65
2023/02/05 03:35:06;;;;;;;6.70;4.30;;;;;;;9.82;43.35;100617.71;108093;1255;60281;-62
2023/02/05 03:37:50;;;;;;;6.20;4.00;;;;;;;10.15;42.90;100614.38;108205;1254;75031;-59
2023/02/05 03:40:19;;;;;;;8.40;4.50;;;;;;;9.49;43.32;100617.67;108119;1254;71236;-62
2023/02/05 03:43:03;;;;;;;6.80;4.10;;;;;;;9.06;44.59;100620.98;108140;1254;73960;-61
2023/02/05 03:45:33;;;;;;;6.10;3.80;;;;;;;9.22;44.30;100618.33;108095;1254;62450;-63
2023/02/05 03:48:39;;;;;;;5.40;4.10;;;;;;;9.21;44.26;100623.08;108091;1254;61329;-64
2023/02/05 03:51:32;;;;;;;6.40;4.40;;;;;;;9.38;43.83;100623.38;107995;1258;74782;-62
2023/02/05 03:54:05;;;;;;;7.90;4.30;;;;;;;9.09;44.23;100618.45;108015;1254;71357;-62
2023/02/05 03:56:55;;;;;;;8.30;4.50;;;;;;;9.15;44.12;100622.02;108108;1254;72686;-62
2023/02/05 03:59:23;;;;;;;7.40;4.10;;;;;;;9.08;44.60;100623.90;108163;1254;61305;-61
2023/02/05 04:01:52;;;;;;;6.50;4.60;;;;;;;9.01;44.73;100625.30;108018;1257;61239;-62
2023/02/05 04:04:20;;;;;;;7.90;4.10;;;;;;;9.13;44.33;100620.80;107946;1254;75002;-63
2023/02/05 04:06:51;;;;;;;7.20;5.10;;;;;;;8.86;44.76;100620.21;108081;1254;71464;-62
2023/02/05 04:09:19;;;;;;;7.90;4.70;;;;;;;8.89;44.46;100619.60;108052;1254;73764;-62
2023/02/05 04:11:47;;;;;;;6.60;4.90;;;;;;;8.86;44.41;100620.90;108058;1256;62162;-61
2023/02/05 04:14:17;;;;;;;9.20;5.20;;;;;;;8.86;44.60;100623.00;108140;1254;60515;-62
2023/02/05 04:16:45;;;;;;;7.40;4.70;;;;;;;8.76;44.79;100626.70;108127;1254;73747;-62
2023/02/05 04:19:14;;;;;;;6.80;4.70;;;;;;;8.93;44.86;100631.96;108125;1254;71645;-59
2023/02/05 04:21:42;;;;;;;8.40;4.60;;;;;;;9.39;44.01;100631.23;108194;1257;73570;-65
2023/02/05 04:24:11;;;;;;;5.80;4.40;;;;;;;9.36;43.59;100630.27;108195;1254;61200;-63
2023/02/05 04:26:39;;;;;;;6.60;4.40;;;;;;;9.43;43.86;100628.87;108130;1254;60412;-64
2023/02/05 04:29:08;;;;;;;6.10;4.40;;;;;;;9.42;43.72;100631.16;108073;1254;75063;-62
2023/02/05 04:31:41;;;;;;;7.20;4.70;;;;;;;9.20;44.14;100630.80;108193;1254;71035;-63
2023/02/05 04:34:10;;;;;;;8.50;4.90;;;;;;;9.26;44.08;100629.11;108038;1254;72668;-61
2023/02/05 04:36:39;;;;;;;7.30;4.60;;;;;;;9.45;43.77;100630.58;108135;1254;62046;-63
2023/02/05 04:39:08;;;;;;;6.50;4.30;;;;;;;9.38;43.97;100630.73;108092;1254;61243;-63
2023/02/05 04:41:36;;;;;;;7.70;5.20;;;;;;;9.20;44.30;100631.88;108095;1254;73081;-60
2023/02/05 04:44:05;;;;;;;7.70;4.60;;;;;;;9.12;44.08;100635.55;108094;1254;71564;-62
2023/02/05 04:46:34;;;;;;;8.00;4.80;;;;;;;9.50;43.70;100629.02;108108;1254;73708;-62
2023/02/05 04:49:02;;;;;;;6.70;4.50;;;;;;;9.51;43.57;100630.79;108049;1254;62417;-64
2023/02/05 04:51:31;;;;;;;7.00;4.70;;;;;;;9.32;43.65;100634.38;108087;1254;61981;-62
2023/02/05 04:53:59;;;;;;;8.50;5.00;;;;;;;9.30;43.57;100637.77;108053;1253;73943;-64
2023/02/05 04:56:27;;;;;;;8.10;4.80;;;;;;;9.29;43.38;100637.97;108021;1254;71672;-62
2023/02/05 04:58:56;;;;;;;9.80;5.20;;;;;;;9.27;43.66;100646.23;108043;1254;73794;-67
2023/02/05 05:01:24;;;;;;;8.90;5.00;;;;;;;9.42;43.74;100646.59;108046;1254;62331;-64
2023/02/05 05:03:52;;;;;;;7.40;4.50;;;;;;;9.72;43.34;100649.02;108006;1254;62103;-62
2023/02/05 05:06:20;;;;;;;8.00;4.50;;;;;;;9.34;44.21;100650.63;108041;1254;73450;-63
2023/02/05 05:08:48;;;;;;;8.60;4.50;;;;;;;9.45;43.90;100650.39;108087;1254;71474;-63
2023/02/05 05:11:17;;;;;;;7.20;4.60;;;;;;;9.35;43.84;100650.78;108049;1258;73303;-63
2023/02/05 05:13:48;;;;;;;8.80;5.60;;;;;;;9.14;44.16;100655.13;108113;1254;61487;-61
2023/02/05 05:16:16;;;;;;;8.30;4.90;;;;;;;9.36;43.52;100656.70;108026;1254;61222;-61
2023/02/05 05:18:44;;;;;;;11.70;5.80;;;;;;;9.74;43.09;100653.16;107986;1254;75063;-61
2023/02/05 05:21:13;;;;;;;7.30;4.90;;;;;;;9.56;43.40;100653.80;108012;1254;71645;-62
2023/02/05 05:23:41;;;;;;;8.40;5.00;;;;;;;9.54;43.51;100653.67;108059;1254;73377;-63
2023/02/05 05:26:10;;;;;;;7.70;5.30;;;;;;;9.76;43.19;100650.83;108112;1258;61439;-63
2023/02/05 05:28:38;;;;;;;9.10;5.40;;;;;;;9.92;42.77;100651.48;108045;1254;60368;-62
2023/02/05 05:31:15;;;;;;;10.90;6.00;;;;;;;9.72;43.05;100658.66;108045;1254;75015;-63
2023/02/05 05:33:44;;;;;;;9.60;5.60;;;;;;;9.70;42.89;100661.15;108089;1254;71599;-64
2023/02/05 05:36:13;;;;;;;8.20;5.50;;;;;;;9.43;43.36;100664.98;108051;1254;73751;-63
2023/02/05 05:38:41;;;;;;;8.60;4.90;;;;;;;9.44;43.70;100667.05;108004;1254;62755;-63
2023/02/05 05:44:08;;;;;;;13.20;5.90;;;;;;;9.68;43.57;100672.23;108073;1254;72821;-63
2023/02/05 05:46:40;;;;;;;8.70;6.00;;;;;;;9.41;43.69;100676.07;108051;1254;71015;-63
2023/02/05 05:49:08;;;;;;;11.00;5.80;;;;;;;9.19;43.94;100681.64;108103;1254;73600;-61
2023/02/05 05:51:37;;;;;;;9.50;5.80;;;;;;;9.12;44.33;100682.69;108132;1254;61546;-62
2023/02/05 05:54:05;;;;;;;11.00;6.00;;;;;;;9.19;44.11;100681.98;108077;1254;61188;-62
2023/02/05 05:56:35;;;;;;;8.40;5.60;;;;;;;9.21;44.08;100687.58;108092;1254;75197;-64
2023/02/05 05:59:03;;;;;;;9.60;5.90;;;;;;;9.38;44.15;100691.90;108130;1254;69630;-63
2023/02/05 06:01:31;;;;;;;11.00;6.40;;;;;;;9.27;44.25;100696.73;108078;1254;73862;-63
2023/02/05 06:03:59;;;;;;;10.90;5.80;;;;;;;9.34;44.20;100700.60;108046;1254;62233;-63
2023/02/05 06:06:30;;;;;;;11.40;6.60;;;;;;;9.31;44.38;100696.09;108088;1254;60402;-62
2023/02/05 06:08:59;;;;;;;9.80;6.60;;;;;;;9.92;43.46;100694.10;108099;1254;75293;-63
2023/02/05 06:11:27;;;;;;;10.10;5.80;;;;;;;10.11;42.97;100694.52;108145;1254;71225;-63
2023/02/05 06:13:55;;;;;;;11.40;6.90;;;;;;;10.46;42.62;100696.57;108018;1254;73570;-63
2023/02/05 06:16:24;;;;;;;10.00;6.50;;;;;;;10.52;42.24;100697.98;108056;1254;61217;-63
2023/02/05 06:18:54;;;;;;;10.10;6.50;;;;;;;10.17;42.53;100706.11;108078;1254;60318;-63
2023/02/05 06:21:22;;;;;;;10.10;6.10;;;;;;;10.04;43.05;100713.28;108071;1254;72907;-64
2023/02/05 06:23:54;;;;;;;11.30;6.20;;;;;;;10.01;42.71;100713.01;108063;1254;70611;-62
2023/02/05 06:26:22;;;;;;;9.80;6.10;;;;;;;9.88;43.25;100711.38;108045;1254;73613;-64
2023/02/05 06:28:50;;;;;;;12.10;7.30;;;;;;;9.55;43.89;100713.23;108068;1254;61874;-64
2023/02/05 06:31:18;;;;;;;11.10;6.90;;;;;;;9.71;43.97;100713.91;108081;1254;61542;-63
2023/02/05 06:33:48;;;;;;;11.20;6.90;;;;;;;9.96;43.60;100715.59;108107;1253;75688;-63
2023/02/05 06:36:16;;;;;;;13.40;7.00;;;;;;;10.12;43.05;100718.69;108124;1254;71523;-63
2023/02/05 06:38:44;;;;;;;11.60;6.70;;;;;;;10.10;42.97;100719.95;108010;1254;73950;-61
2023/02/05 06:41:12;;;;;;;10.80;6.90;;;;;;;10.42;42.41;100721.59;108054;1254;62296;-64
2023/02/05 06:43:41;;;;;;;10.40;6.40;;;;;;;10.68;42.12;100723.53;108044;1254;61198;-64
2023/02/05 06:46:10;;;;;;;11.10;6.70;;;;;;;10.85;41.80;100721.62;108054;1254;74697;-62
2023/02/05 06:48:38;;;;;;;10.20;6.40;;;;;;;10.88;41.76;100726.46;108043;1254;70320;-63
2023/02/05 06:51:06;;;;;;;11.90;6.40;;;;;;;9.72;43.27;100731.23;108055;1254;73732;-63
2023/02/05 06:53:34;;;;;;;12.60;7.20;;;;;;;9.70;43.51;100733.21;108028;1257;61872;-65
2023/02/05 06:56:03;;;;;;;12.20;7.10;;;;;;;9.73;43.53;100734.00;108074;1254;61561;-64
2023/02/05 06:58:31;;;;;;;10.40;6.60;;;;;;;8.47;45.83;100742.30;108106;1254;72101;-59
2023/02/05 07:01:00;;;;;;;10.20;6.30;;;;;;;8.45;46.12;100746.70;108050;1254;71258;-62
2023/02/05 07:03:28;;;;;;;13.20;6.60;;;;;;;8.38;46.62;100744.02;108004;1259;72996;-63
2023/02/05 07:06:03;;;;;;;11.00;6.40;;;;;;;8.47;46.83;100739.49;108061;1254;61258;-62
2023/02/05 07:08:32;;;;;;;10.50;6.70;;;;;;;8.45;46.80;100738.65;108068;1254;60533;-64
2023/02/05 07:11:01;;;;;;;11.20;7.10;;;;;;;8.73;46.48;100738.98;108123;1254;75090;-65
2023/02/05 07:13:32;;;;;;;13.40;7.70;;;;;;;9.26;45.69;100742.98;108075;1254;70348;-65
2023/02/05 07:16:04;;;;;;;11.00;6.60;;;;;;;9.68;44.77;100742.73;108076;1254;73355;-63
2023/02/05 07:18:32;;;;;;;11.80;7.10;;;;;;;9.53;45.12;100746.06;108054;1254;60885;-63
2023/02/05 07:21:07;;;;;;;12.10;7.30;;;;;;;10.18;44.18;100746.42;108062;1254;61189;-64
2023/02/05 07:23:36;;;;;;;10.60;6.40;;;;;;;9.07;45.32;100751.79;108190;1254;75056;-63
2023/02/05 07:26:06;;;;;;;12.20;7.40;;;;;;;8.72;46.59;100755.31;108107;1254;71597;-64
2023/02/05 07:28:34;;;;;;;11.90;6.70;;;;;;;8.54;46.81;100755.47;108096;1254;70818;-64
2023/02/05 07:31:05;;;;;;;10.90;6.80;;;;;;;8.31;47.54;100762.67;108086;1253;62432;-64
2023/02/05 07:33:35;;;;;;;11.80;6.90;;;;;;;8.57;47.41;100765.55;108050;1253;60973;-63
2023/02/05 07:36:05;;;;;;;10.10;5.60;;;;;;;8.98;46.88;100765.99;108050;1254;74908;-63
2023/02/05 07:38:35;;;;;;;14.90;7.20;;;;;;;9.38;46.39;100760.26;108068;1254;71331;-64
2023/02/05 07:41:08;;;;;;;15.80;7.80;;;;;;;8.76;47.26;100763.45;108046;1254;73656;-64
2023/02/05 07:43:36;;;;;;;11.50;6.60;;;;;;;8.74;47.08;100764.52;108008;1253;62297;-64
2023/02/05 07:46:06;;;;;;;11.70;7.30;;;;;;;8.92;47.42;100761.01;108053;1254;60987;-64
2023/02/05 07:48:34;;;;;;;11.20;6.80;;;;;;;9.55;45.73;100758.98;108018;1254;72245;-64
2023/02/05 07:51:03;;;;;;;10.80;6.80;;;;;;;9.59;45.55;100756.63;108060;1254;69901;-65
2023/02/05 07:53:31;;;;;;;11.50;7.10;;;;;;;8.86;46.39;100757.64;107994;1254;73929;-65
2023/02/05 07:56:03;;;;;;;8.20;5.50;;;;;;;8.94;46.74;100756.79;108067;1254;62479;-64
2023/02/05 07:58:31;;;;;;;12.70;7.30;;;;;;;8.96;46.74;100763.02;107952;1254;128431;-64
2023/02/05 08:03:42;;;;;;;9.60;6.30;;;;;;;6.82;51.84;100781.66;104914;1290;601144;-64
2023/02/05 08:06:12;;;;;;;13.10;7.50;;;;;;;7.93;49.68;100781.30;107313;1264;62401;-64
2023/02/05 08:08:41;;;;;;;11.20;6.80;;;;;;;8.28;48.82;100784.77;107382;1264;60313;-64
2023/02/05 08:11:12;;;;;;;13.00;7.70;;;;;;;8.37;48.79;100780.61;107394;1264;72463;-65
2023/02/05 08:13:42;;;;;;;12.30;7.90;;;;;;;8.51;48.44;100786.50;107377;1264;71185;-64
2023/02/05 08:16:14;;;;;;;10.20;6.50;;;;;;;8.45;48.38;100789.05;107331;1264;127383;-65
2023/02/05 08:18:45;;;;;;;;;;;;;;;8.31;48.70;100790.33;107522;1263;59380;-64
2023/02/05 08:21:15;;;;;;;16.40;7.20;;;;;;;9.21;47.35;100793.36;108057;1256;60463;-63
2023/02/05 08:23:43;;;;;;;10.70;6.20;;;;;;;9.37;47.04;100790.93;108040;1256;72142;-63
2023/02/05 08:26:12;;;;;;;10.70;7.00;;;;;;;9.53;46.89;100791.46;108016;1256;69431;-64
2023/02/05 08:28:40;;;;;;;13.60;7.10;;;;;;;9.69;46.61;100795.48;107967;1256;74025;-61
2023/02/05 08:31:14;;;;;;;11.40;6.40;;;;;;;9.72;45.79;100795.94;107930;1256;61896;-64
2023/02/05 08:33:42;;;;;;;11.40;6.80;;;;;;;9.54;46.76;100802.86;107971;1256;61297;-64
2023/02/05 08:36:11;;;;;;;10.80;7.00;;;;;;;9.62;46.14;100804.77;108000;1256;73314;-64
2023/02/05 08:38:39;;;;;;;10.30;6.70;;;;;;;9.79;46.08;100808.42;107946;1255;70617;-66
2023/02/05 08:41:11;;;;;;;17.40;7.80;;;;;;;9.81;46.39;100810.13;107897;1256;72388;-63
2023/02/05 08:43:40;;;;;;;8.80;6.00;;;;;;;9.72;46.09;100811.39;107878;1256;60333;-63
2023/02/05 08:46:09;;;;;;;11.10;7.20;;;;;;;9.62;46.79;100815.48;107862;1256;59318;-65
2023/02/05 08:48:37;;;;;;;11.30;6.70;;;;;;;9.58;46.92;100818.72;107793;1256;74059;-64
2023/02/05 08:51:08;;;;;;;14.10;7.30;;;;;;;9.51;46.96;100821.66;107779;1256;70508;-64
2023/02/05 08:53:36;;;;;;;12.00;6.50;;;;;;;9.61;47.04;100822.67;107780;1257;73599;-65
2023/02/05 08:56:05;;;;;;;8.70;6.20;;;;;;;9.95;46.11;100824.18;107863;1256;62411;-64
2023/02/05 08:58:33;;;;;;;11.40;7.20;;;;;;;10.11;46.37;100823.98;107807;1257;61116;-65
2023/02/05 09:01:04;;;;;;;10.30;6.40;;;;;;;10.11;45.98;100826.27;107889;1256;73421;-64
2023/02/05 09:03:32;;;;;;;11.50;7.00;;;;;;;10.06;45.20;100823.23;107836;1256;71368;-65
2023/02/05 09:06:04;;;;;;;13.50;6.90;;;;;;;10.13;45.42;100829.36;108258;1253;73576;-66
2023/02/05 09:08:32;;;;;;;10.50;6.60;;;;;;;10.42;44.88;100830.61;108251;1253;61908;-64
2023/02/05 09:11:00;;;;;;;10.60;6.70;;;;;;;10.54;44.68;100830.33;108291;1253;60523;-65
2023/02/05 09:13:28;;;;;;;13.00;7.60;;;;;;;10.88;44.27;100828.02;108284;1256;74238;-61
2023/02/05 09:15:59;;;;;;;11.20;7.20;;;;;;;11.05;44.21;100829.66;108260;1253;72021;-64
2023/02/05 09:18:27;;;;;;;12.40;7.00;;;;;;;11.09;44.06;100827.44;108294;1253;73584;-66
2023/02/05 09:20:56;;;;;;;11.00;6.60;;;;;;;10.78;44.51;100826.36;108235;1252;61722;-65
2023/02/05 09:23:24;;;;;;;8.60;6.20;;;;;;;10.57;44.91;100827.95;108329;1252;60636;-65
2023/02/05 09:25:53;;;;;;;13.00;7.60;;;;;;;10.76;44.33;100830.27;108287;1252;73895;-64
2023/02/05 09:28:21;;;;;;;11.40;7.00;;;;;;;10.78;43.90;100837.61;108286;1254;71271;-64
2023/02/05 09:30:50;;;;;;;11.90;7.40;;;;;;;10.63;44.67;100838.70;108240;1252;71681;-64
2023/02/05 09:33:18;;;;;;;13.20;7.70;;;;;;;10.59;44.42;100837.91;108104;1253;61086;-63
2023/02/05 09:35:46;;;;;;;10.90;6.60;;;;;;;10.76;44.30;100833.42;108228;1256;60711;-64
2023/02/05 09:38:16;;;;;;;16.20;9.30;;;;;;;10.80;44.59;100829.83;108213;1253;72263;-65
2023/02/05 09:41:09;;;;;;;12.00;8.00;;;;;;;10.67;44.79;100827.89;108034;1252;71360;-64
2023/02/05 09:43:55;;;;;;;14.70;8.10;;;;;;;10.41;44.56;100832.05;108156;1251;72725;-63
2023/02/05 09:46:39;;;;;;;15.70;7.90;;;;;;;10.18;45.18;100832.77;108244;1256;62164;-64
2023/02/05 09:49:17;;;;;;;14.30;8.20;;;;;;;10.24;45.15;100835.59;108213;1253;61556;-64
2023/02/05 09:51:50;;;;;;;10.30;7.10;;;;;;;10.53;44.88;100826.66;108323;1252;73533;-65
2023/02/05 09:54:24;;;;;;;11.00;7.30;;;;;;;10.86;44.79;100829.82;108096;1253;71813;-63
2023/02/05 09:56:55;;;;;;;11.00;7.90;;;;;;;10.27;45.32;100828.52;108285;1256;71070;-63
2023/02/05 09:59:25;;;;;;;10.40;7.10;;;;;;;10.19;45.96;100827.11;108263;1252;60394;-65
2023/02/05 10:01:57;;;;;;;14.30;8.00;;;;;;;10.34;45.89;100827.11;108232;1251;59987;-65
2023/02/05 10:04:26;;;;;;;14.60;9.30;;;;;;;10.77;45.30;100825.68;108242;1253;73443;-63
2023/02/05 10:06:54;;;;;;;12.10;7.50;;;;;;;11.02;45.04;100821.14;108269;1253;70472;-64
2023/02/05 10:09:53;;;;;;;11.10;7.50;;;;;;;11.37;44.61;100824.36;108241;1252;72935;-64
2023/02/05 10:12:40;;;;;;;10.90;6.80;;;;;;;11.77;43.57;100825.45;108220;1252;61729;-60
2023/02/05 10:15:28;;;;;;;9.00;6.50;;;;;;;12.28;43.48;100832.83;108239;1252;61023;-64
2023/02/05 10:18:17;;;;;;;11.30;7.20;;;;;;;11.91;44.24;100834.20;108263;1252;74029;-63
2023/02/05 10:20:54;;;;;;;9.40;6.30;;;;;;;12.47;42.72;100835.17;108339;1255;71194;-64
2023/02/05 10:23:49;;;;;;;11.30;6.80;;;;;;;12.98;41.10;100837.11;108135;1253;73783;-62
2023/02/05 10:26:17;;;;;;;9.80;6.80;;;;;;;12.83;41.03;100841.52;108210;1253;61375;-64
2023/02/05 10:29:02;;;;;;;9.80;6.30;;;;;;;12.52;41.16;100848.23;108376;1251;59640;-64
2023/02/05 10:31:34;;;;;;;9.40;5.90;;;;;;;12.05;41.42;100848.19;108369;1251;73338;-64
2023/02/05 10:34:29;;;;;;;18.10;9.70;;;;;;;12.03;42.05;100852.30;108361;1251;70540;-64
2023/02/05 10:36:57;;;;;;;11.60;7.20;;;;;;;11.70;42.26;100853.98;108365;1251;73809;-64
2023/02/05 10:39:27;;;;;;;8.80;6.40;;;;;;;11.41;42.65;100854.49;108184;1251;62433;-66
2023/02/05 10:42:16;;;;;;;10.30;6.90;;;;;;;11.71;42.48;100864.86;108239;1251;61144;-63
2023/02/05 10:44:45;;;;;;;10.50;7.50;;;;;;;11.81;42.41;100865.08;108308;1251;72345;-63
2023/02/05 10:47:27;;;;;;;9.80;6.40;;;;;;;11.67;42.64;100866.91;108212;1251;71250;-65
2023/02/05 10:50:00;;;;;;;12.80;8.40;;;;;;;11.55;42.80;100863.55;108276;1251;73874;-64
2023/02/05 10:52:28;;;;;;;11.60;7.80;;;;;;;11.54;42.94;100864.82;108234;1251;62491;-65
2023/02/05 10:54:56;;;;;;;12.50;8.20;;;;;;;11.28;43.39;100867.33;108287;1251;61435;-62
2023/02/05 10:57:24;;;;;;;12.70;8.30;;;;;;;11.38;43.34;100871.27;108346;1255;74243;-64
2023/02/05 10:59:54;;;;;;;10.10;6.80;;;;;;;11.46;43.20;100867.69;108332;1251;70296;-64
2023/02/05 11:02:37;;;;;;;11.40;7.70;;;;;;;11.39;42.88;100867.88;108259;1251;73632;-61
2023/02/05 11:05:26;;;;;;;10.30;7.00;;;;;;;11.12;42.94;100870.77;108276;1251;62441;-62
2023/02/05 11:07:55;;;;;;;11.30;7.00;;;;;;;11.17;42.93;100869.21;108356;1251;61289;-63
2023/02/05 11:10:24;;;;;;;13.70;8.50;;;;;;;11.39;42.98;100875.45;108283;1251;74261;-63
2023/02/05 11:12:55;;;;;;;10.80;7.20;;;;;;;11.35;42.97;100875.75;108420;1251;71507;-64
2023/02/05 11:15:28;;;;;;;14.00;9.10;;;;;;;11.06;43.35;100884.45;108383;1252;72949;-64
2023/02/05 11:18:03;;;;;;;12.30;8.70;;;;;;;10.76;43.69;100888.42;108328;1251;62696;-65
2023/02/05 11:20:34;;;;;;;14.60;8.90;;;;;;;10.50;44.19;100885.20;108361;1251;61027;-64
2023/02/05 11:23:17;;;;;;;16.90;10.50;;;;;;;10.70;44.22;100886.45;108388;1251;70840;-65
2023/02/05 11:25:56;;;;;;;12.50;8.50;;;;;;;10.95;43.71;100886.52;108364;1251;69821;-64
2023/02/05 11:28:28;;;;;;;21.40;9.60;;;;;;;10.77;44.00;100884.00;108281;1252;72213;-65
2023/02/05 11:30:57;;;;;;;25.70;13.10;;;;;;;10.74;44.01;100883.55;108247;1253;62175;-64
2023/02/05 11:33:32;;;;;;;19.00;10.40;;;;;;;10.77;44.02;100886.11;108244;1253;60549;-65
2023/02/05 11:36:02;;;;;;;13.90;7.80;;;;;;;10.95;43.74;100885.64;108284;1252;74351;-64
2023/02/05 11:38:45;;;;;;;22.20;10.80;;;;;;;10.78;44.16;100889.58;108100;1253;69545;-65
2023/02/05 11:41:50;;;;;;;22.90;11.80;;;;;;;10.98;43.84;100886.27;108176;1253;71788;-65
2023/02/05 11:44:24;;;;;;;17.80;10.30;;;;;;;10.94;43.91;100886.55;108238;1253;60103;-63